May Valley, Colorado
Current Conditions -  °F | °C
As of 9:53 PM on Tuesday 25 Nov 2014 (Local Time) from KLAA Reporting Station
Scattered Clouds Scattered Clouds  
Wind Chill: 33°   Ceiling: Unl
Heat Index: 33°   Visibility: 10mi
Dew Point: 20°   Wind: 0mph
Humidity: 59%   Direction: NA
Pressure: 29.96"   Gusts: NA
Location:  37.885°N, 102.667°W
Report Text: KLAA 260453Z AUTO 00000KT 10SM SCT110 01/M07 A2996 RMK AO2 SLP149 T00061067
Loading
Personal Weather Stations






























Interactive Weather Map New forecast layout! Learn more

10-Day Weather Forecast

Advertisements
Track Severe Weather on mobile